createdAt,value
2017-07-12T00:02:27.139Z,98513.36
2017-07-12T00:04:56.605Z,98509.17
2017-07-12T00:07:26.119Z,98498.75
2017-07-12T00:09:55.550Z,98505.71
2017-07-12T00:12:24.838Z,98507.70
2017-07-12T00:14:54.329Z,98508.16
2017-07-12T00:17:23.794Z,98508.53
2017-07-12T00:19:53.262Z,98512.27
2017-07-12T00:22:22.766Z,98505.35
2017-07-12T00:24:52.239Z,98507.09
2017-07-12T00:27:21.675Z,98497.81
2017-07-12T00:29:51.119Z,98500.55
2017-07-12T00:32:20.554Z,98500.00
2017-07-12T00:34:49.997Z,98503.88
2017-07-12T00:37:19.448Z,98508.72
2017-07-12T00:39:48.993Z,98510.38
2017-07-12T00:42:18.448Z,98508.31
2017-07-12T00:44:47.882Z,98512.88
2017-07-12T00:49:45.594Z,98511.42
2017-07-12T00:52:15.055Z,98511.25
2017-07-12T00:54:44.497Z,98509.03
2017-07-12T00:57:13.948Z,98508.85
2017-07-12T00:59:43.393Z,98507.78
2017-07-12T01:02:12.842Z,98505.05
2017-07-12T01:04:42.291Z,98509.71
2017-07-12T01:07:11.744Z,98510.77
2017-07-12T01:09:41.188Z,98501.75
2017-07-12T01:12:10.629Z,98504.54
2017-07-12T01:14:40.127Z,98501.09
2017-07-12T01:17:09.568Z,98508.02
2017-07-12T01:19:39.020Z,98512.14
2017-07-12T01:22:08.473Z,98505.07
2017-07-12T01:24:37.917Z,98500.80
2017-07-12T01:27:07.397Z,98494.72
2017-07-12T01:29:36.831Z,98492.25
2017-07-12T01:32:06.311Z,98483.54
2017-07-12T01:34:35.776Z,98479.53
2017-07-12T01:37:05.230Z,98481.48
2017-07-12T01:39:34.681Z,98472.91
2017-07-12T01:42:04.146Z,98475.95
2017-07-12T01:44:33.586Z,98469.66
2017-07-12T01:47:02.685Z,98468.71
2017-07-12T01:49:32.121Z,98471.23
2017-07-12T01:52:01.659Z,98475.47
2017-07-12T01:54:31.102Z,98474.81
2017-07-12T01:57:00.565Z,98486.25
2017-07-12T01:59:30.018Z,98486.40
2017-07-12T02:01:59.466Z,98493.41
2017-07-12T02:04:28.925Z,98491.42
2017-07-12T02:06:58.535Z,98483.06
2017-07-12T02:09:28.002Z,98482.30
2017-07-12T02:11:57.473Z,98486.62
2017-07-12T02:14:26.927Z,98487.99
2017-07-12T02:16:56.391Z,98482.25
2017-07-12T02:19:25.834Z,98477.64
2017-07-12T02:21:55.301Z,98485.43
2017-07-12T02:24:24.744Z,98482.09
2017-07-12T02:26:54.201Z,98487.78
2017-07-12T02:29:23.679Z,98485.25
2017-07-12T02:31:53.125Z,98495.14
2017-07-12T02:34:22.586Z,98488.94
2017-07-12T02:36:52.047Z,98488.44
2017-07-12T02:39:21.490Z,98481.03
2017-07-12T02:41:50.948Z,98483.87
2017-07-12T02:44:20.414Z,98481.23
2017-07-12T02:46:49.861Z,98474.95
2017-07-12T02:49:19.306Z,98474.39
2017-07-12T02:51:48.755Z,98473.78
2017-07-12T02:54:18.201Z,98470.12
2017-07-12T02:56:47.670Z,98474.16
2017-07-12T02:59:17.122Z,98477.36
2017-07-12T03:01:46.569Z,98477.70
2017-07-12T03:04:16.006Z,98478.84
2017-07-12T03:06:45.478Z,98484.90
2017-07-12T03:09:14.928Z,98488.62
2017-07-12T03:11:44.372Z,98490.33
2017-07-12T03:14:13.822Z,98492.84
2017-07-12T03:16:43.279Z,98498.26
2017-07-12T03:19:13.042Z,98488.24
2017-07-12T03:21:42.487Z,98492.34
2017-07-12T03:24:11.937Z,98491.84
2017-07-12T03:26:41.411Z,98494.30
2017-07-12T03:29:10.849Z,98498.50
2017-07-12T03:31:40.309Z,98509.94
2017-07-12T03:34:09.769Z,98503.86
2017-07-12T03:36:39.205Z,98505.94
2017-07-12T03:39:08.650Z,98506.36
2017-07-12T03:41:38.233Z,98508.45
2017-07-12T03:44:07.970Z,98508.18
2017-07-12T03:46:37.445Z,98511.18
2017-07-12T03:49:06.891Z,98508.22
2017-07-12T03:51:36.357Z,98500.16
2017-07-12T03:54:05.797Z,98506.90
2017-07-12T03:56:35.265Z,98500.09
2017-07-12T03:59:05.006Z,98509.21
2017-07-12T04:01:34.470Z,98495.60
2017-07-12T04:04:03.922Z,98504.81
2017-07-12T04:06:33.357Z,98509.58
2017-07-12T04:09:02.793Z,98511.99
2017-07-12T04:11:32.397Z,98513.26
2017-07-12T04:14:02.139Z,98514.94
2017-07-12T04:16:31.597Z,98513.61
2017-07-12T04:19:01.325Z,98509.14
2017-07-12T04:21:30.762Z,98510.34
2017-07-12T04:24:00.213Z,98507.55
2017-07-12T04:26:29.676Z,98509.25
2017-07-12T04:28:59.190Z,98503.06
2017-07-12T04:31:28.663Z,98502.54
2017-07-12T04:33:58.114Z,98503.23
2017-07-12T04:36:27.571Z,98503.94
2017-07-12T04:38:57.009Z,98497.56
2017-07-12T04:41:26.499Z,98505.64
2017-07-12T04:43:55.922Z,98507.25
2017-07-12T04:46:25.371Z,98511.16
2017-07-12T04:48:54.823Z,98515.26
2017-07-12T04:51:24.266Z,98508.27
2017-07-12T04:53:53.722Z,98514.19
2017-07-12T04:56:23.176Z,98512.81
2017-07-12T04:58:52.895Z,98513.16
2017-07-12T05:01:22.344Z,98507.87
2017-07-12T05:03:51.794Z,98502.22
2017-07-12T05:06:21.234Z,98498.02
2017-07-12T05:08:50.684Z,98486.00
2017-07-12T05:11:20.150Z,98486.94
2017-07-12T05:13:49.593Z,98487.51
2017-07-12T05:16:19.948Z,98490.52
2017-07-12T05:18:49.391Z,98484.33
2017-07-12T05:21:18.834Z,98487.36
2017-07-12T05:23:48.289Z,98486.70
2017-07-12T05:26:17.738Z,98487.94
2017-07-12T05:28:47.188Z,98483.21
2017-07-12T05:31:16.645Z,98486.97
2017-07-12T05:33:46.099Z,98491.06
2017-07-12T05:36:15.580Z,98488.14
2017-07-12T05:38:45.003Z,98492.70
2017-07-12T05:41:14.459Z,98486.81
2017-07-12T05:43:43.905Z,98493.38
2017-07-12T05:46:13.353Z,98489.02
2017-07-12T05:48:42.802Z,98485.63
2017-07-12T05:51:12.262Z,98484.52
2017-07-12T05:53:41.715Z,98472.80
2017-07-12T05:56:11.173Z,98471.83
2017-07-12T05:58:40.750Z,98473.64
2017-07-12T06:01:10.224Z,98477.88
2017-07-12T06:03:39.662Z,98477.97
2017-07-12T06:06:10.081Z,98486.32
2017-07-12T06:08:39.548Z,98482.70
2017-07-12T06:11:08.988Z,98482.30
2017-07-12T06:13:38.437Z,98474.53
2017-07-12T06:16:07.897Z,98481.78
2017-07-12T06:18:37.360Z,98483.80
2017-07-12T06:21:06.817Z,98476.34
2017-07-12T06:23:36.280Z,98468.28
2017-07-12T06:26:05.733Z,98464.75
2017-07-12T06:28:36.885Z,98467.97
2017-07-12T06:31:06.341Z,98465.53
2017-07-12T06:33:35.615Z,98464.40
2017-07-12T06:36:05.077Z,98458.27
2017-07-12T06:38:34.533Z,98454.94
2017-07-12T06:41:03.984Z,98455.38
2017-07-12T06:43:33.460Z,98449.42
2017-07-12T06:46:02.918Z,98449.72
2017-07-12T06:48:32.382Z,98445.65
2017-07-12T06:51:01.846Z,98450.81
2017-07-12T06:53:31.301Z,98444.49
2017-07-12T06:56:00.753Z,98446.88
2017-07-12T06:58:30.217Z,98446.38
2017-07-12T07:00:59.674Z,98442.61
2017-07-12T07:03:29.125Z,98437.16
2017-07-12T07:05:58.592Z,98427.67
2017-07-12T07:08:28.174Z,98427.86
2017-07-12T07:10:57.609Z,98433.43
2017-07-12T07:13:27.066Z,98435.58
2017-07-12T07:15:56.545Z,98435.61
2017-07-12T07:18:25.814Z,98432.83
2017-07-12T07:20:55.261Z,98429.89
2017-07-12T07:23:24.712Z,98431.73
2017-07-12T07:25:54.165Z,98425.58
2017-07-12T07:28:23.626Z,98422.77
2017-07-12T07:30:53.073Z,98420.36
2017-07-12T07:33:23.109Z,98422.55
2017-07-12T07:35:52.590Z,98419.96
2017-07-12T07:38:22.045Z,98415.73
2017-07-12T07:40:51.503Z,98409.48
2017-07-12T07:43:20.962Z,98404.38
2017-07-12T07:45:50.429Z,98399.48
2017-07-12T07:48:19.907Z,98390.55
2017-07-12T07:50:49.462Z,98398.23
2017-07-12T07:53:18.920Z,98406.55
2017-07-12T07:55:48.361Z,98398.09
2017-07-12T07:58:17.823Z,98393.79
2017-07-12T08:00:47.279Z,98392.15
2017-07-12T08:03:16.740Z,98391.81
2017-07-12T08:05:46.172Z,98389.86
2017-07-12T08:08:15.644Z,98380.31
2017-07-12T08:10:45.075Z,98382.23
2017-07-12T08:13:14.534Z,98382.80
2017-07-12T08:15:43.997Z,98379.78
2017-07-12T08:18:13.448Z,98369.28
2017-07-12T08:20:42.909Z,98368.91
2017-07-12T08:23:12.349Z,98372.30
2017-07-12T08:25:41.816Z,98373.33
2017-07-12T08:28:11.326Z,98370.22
2017-07-12T08:30:40.773Z,98363.80
2017-07-12T08:33:11.172Z,98362.82
2017-07-12T08:35:40.628Z,98362.81
2017-07-12T08:38:10.075Z,98368.58
2017-07-12T08:40:39.539Z,98370.86
2017-07-12T08:43:08.981Z,98363.95
2017-07-12T08:45:38.449Z,98361.55
2017-07-12T08:48:07.995Z,98366.30
2017-07-12T08:50:37.433Z,98369.52
2017-07-12T08:53:06.886Z,98363.19
2017-07-12T08:55:36.336Z,98365.36
2017-07-12T08:58:05.797Z,98355.34
2017-07-12T09:00:35.283Z,98356.15
2017-07-12T09:03:04.578Z,98351.19
2017-07-12T09:05:34.022Z,98349.33
2017-07-12T09:08:03.493Z,98346.91
2017-07-12T09:10:32.938Z,98349.38
2017-07-12T09:13:02.385Z,98337.92
2017-07-12T09:15:31.851Z,98341.83
2017-07-12T09:18:01.128Z,98339.64
2017-07-12T09:20:30.586Z,98341.46
2017-07-12T09:23:00.026Z,98338.52
2017-07-12T09:35:27.138Z,98340.37
2017-07-12T09:37:56.596Z,98338.48
2017-07-12T09:40:26.109Z,98332.09
2017-07-12T09:42:55.566Z,98334.06
2017-07-12T09:45:25.021Z,98335.59
2017-07-12T09:47:54.477Z,98333.33
2017-07-12T09:50:23.913Z,98329.28
2017-07-12T09:52:54.117Z,98335.20
2017-07-12T09:55:23.573Z,98336.71
2017-07-12T09:57:53.038Z,98332.14
2017-07-12T10:00:22.476Z,98330.67
2017-07-12T10:02:51.756Z,98335.29
2017-07-12T10:05:21.207Z,98328.62
2017-07-12T10:07:50.681Z,98331.11
2017-07-12T10:10:20.142Z,98329.33
2017-07-12T10:12:49.602Z,98330.30
2017-07-12T10:15:19.049Z,98321.95
2017-07-12T10:17:48.505Z,98318.85
2017-07-12T10:20:17.950Z,98310.49
2017-07-12T10:22:47.412Z,98314.16
2017-07-12T10:25:16.854Z,98313.72
2017-07-12T10:27:46.294Z,98307.55
2017-07-12T10:30:15.764Z,98310.18
2017-07-12T10:32:45.201Z,98307.75
2017-07-12T10:35:14.653Z,98306.23
2017-07-12T10:37:44.109Z,98308.92
2017-07-12T10:40:13.553Z,98303.08
2017-07-12T10:42:42.989Z,98308.64
2017-07-12T10:45:12.453Z,98308.11
2017-07-12T10:47:41.937Z,98303.33
2017-07-12T10:50:11.393Z,98301.58
2017-07-12T10:52:40.851Z,98299.89
2017-07-12T10:55:10.303Z,98309.06
2017-07-12T10:57:39.854Z,98301.98
2017-07-12T11:00:09.302Z,98296.63
2017-07-12T11:02:38.746Z,98291.54
2017-07-12T11:05:08.189Z,98296.03
2017-07-12T11:07:37.707Z,98297.27
2017-07-12T11:10:07.152Z,98299.27
2017-07-12T11:12:36.594Z,98295.66
2017-07-12T11:15:06.048Z,98301.50
2017-07-12T11:17:35.492Z,98300.38
2017-07-12T11:20:04.958Z,98295.64
2017-07-12T11:22:34.411Z,98296.81
2017-07-12T11:25:03.872Z,98287.46
2017-07-12T11:27:33.313Z,98283.98
2017-07-12T11:30:02.785Z,98277.61
2017-07-12T11:32:32.245Z,98275.48
2017-07-12T11:35:01.693Z,98280.04
2017-07-12T11:37:31.147Z,98271.45
2017-07-12T11:40:00.600Z,98272.85
2017-07-12T11:42:30.046Z,98272.15
2017-07-12T11:44:59.501Z,98268.54
2017-07-12T11:47:28.945Z,98273.28
2017-07-12T11:49:58.414Z,98273.91
2017-07-12T11:52:27.891Z,98270.55
2017-07-12T11:54:57.322Z,98263.77
2017-07-12T11:57:26.778Z,98262.08
2017-07-12T11:59:56.325Z,98268.73
2017-07-12T12:02:25.782Z,98265.09
2017-07-12T12:04:55.227Z,98263.43
2017-07-12T12:07:24.673Z,98260.66
2017-07-12T12:09:54.121Z,98278.81
2017-07-12T12:12:23.574Z,98260.16
2017-07-12T12:14:53.034Z,98260.48
2017-07-12T12:17:22.526Z,98249.94
2017-07-12T12:19:51.969Z,98261.59
2017-07-12T12:22:22.159Z,98260.47
2017-07-12T12:24:51.607Z,98246.63
2017-07-12T12:27:21.042Z,98246.14
2017-07-12T12:29:50.550Z,98235.64
2017-07-12T12:32:19.993Z,98236.60
2017-07-12T12:34:49.513Z,98235.58
2017-07-12T12:37:18.977Z,98227.90
2017-07-12T12:39:48.421Z,98225.28
2017-07-12T12:42:17.872Z,98217.31
2017-07-12T12:44:47.329Z,98214.23
2017-07-12T12:47:16.605Z,98210.48
2017-07-12T12:49:46.057Z,98217.55
2017-07-12T12:52:15.529Z,98210.30
2017-07-12T12:54:44.829Z,98216.00
2017-07-12T12:57:14.094Z,98205.48
2017-07-12T12:59:43.551Z,98198.94
2017-07-12T13:02:12.993Z,98198.80
2017-07-12T13:05:00.105Z,98187.11
2017-07-12T13:07:29.549Z,98190.30
2017-07-12T13:09:58.997Z,98184.72
2017-07-12T13:12:28.466Z,98182.36
2017-07-12T13:14:57.948Z,98194.37
2017-07-12T13:17:27.388Z,98188.55
2017-07-12T13:19:57.571Z,98184.09
2017-07-12T13:22:27.020Z,98184.16
2017-07-12T13:24:56.482Z,98188.51
2017-07-12T13:27:25.945Z,98193.52
2017-07-12T13:29:55.386Z,98195.28
2017-07-12T13:32:24.841Z,98187.26
2017-07-12T13:34:54.297Z,98196.64
2017-07-12T13:37:23.734Z,98195.41
2017-07-12T13:39:53.198Z,98198.02
2017-07-12T13:42:22.650Z,98191.09
2017-07-12T13:44:52.106Z,98195.55
2017-07-12T13:47:21.567Z,98195.36
2017-07-12T13:49:51.025Z,98200.26
2017-07-12T13:52:20.457Z,98192.92
2017-07-12T13:54:49.913Z,98201.77
2017-07-12T13:57:19.450Z,98194.72
2017-07-12T13:59:49.063Z,98186.75
2017-07-12T14:02:18.525Z,98183.39
2017-07-12T14:04:47.978Z,98191.03
2017-07-12T14:07:17.423Z,98191.82
2017-07-12T14:09:46.880Z,98177.77
2017-07-12T14:12:16.333Z,98173.51
2017-07-12T14:14:45.774Z,98169.66
2017-07-12T14:17:15.246Z,98169.84
2017-07-12T14:19:44.677Z,98157.30
2017-07-12T14:22:14.128Z,98151.94
2017-07-12T14:24:43.611Z,98148.36
2017-07-12T14:27:13.055Z,98144.59
2017-07-12T14:29:42.505Z,98145.00
2017-07-12T14:32:11.961Z,98146.94
2017-07-12T14:34:41.405Z,98149.05
2017-07-12T14:37:10.872Z,98140.77
2017-07-12T14:39:40.317Z,98137.26
2017-07-12T14:42:09.805Z,98143.11
2017-07-12T14:44:39.241Z,98147.56
2017-07-12T14:47:08.698Z,98141.87
2017-07-12T14:49:38.125Z,98138.63
2017-07-12T14:52:07.595Z,98133.19
2017-07-12T14:54:37.126Z,98142.80
2017-07-12T14:57:06.560Z,98142.36
2017-07-12T14:59:36.016Z,98138.42
2017-07-12T15:02:05.475Z,98130.38
2017-07-12T15:04:34.925Z,98135.67
2017-07-12T15:07:04.366Z,98126.16
2017-07-12T15:09:33.818Z,98121.39
2017-07-12T15:12:03.285Z,98118.26
2017-07-12T15:14:32.829Z,98112.66
2017-07-12T15:17:02.274Z,98116.95
2017-07-12T15:19:31.733Z,98105.25
2017-07-12T15:22:01.276Z,98111.13
2017-07-12T15:24:30.743Z,98100.00
2017-07-12T15:27:00.184Z,98097.59
2017-07-12T15:29:29.640Z,98092.17
2017-07-12T15:31:59.095Z,98088.23
2017-07-12T15:34:28.599Z,98081.69
2017-07-12T15:36:58.043Z,98078.70
2017-07-12T15:39:27.487Z,98076.91
2017-07-12T15:41:56.932Z,98072.95
2017-07-12T15:44:26.377Z,98079.70
2017-07-12T15:46:55.920Z,98071.02
2017-07-12T15:49:25.394Z,98059.77
2017-07-12T15:51:54.966Z,98061.40
2017-07-12T15:54:24.426Z,98065.40
2017-07-12T15:56:53.953Z,98065.50
2017-07-12T15:59:23.430Z,98058.01
2017-07-12T16:01:52.922Z,98059.55
2017-07-12T16:04:22.390Z,98059.63
2017-07-12T16:06:52.049Z,98053.06
2017-07-12T16:09:21.487Z,98051.43
2017-07-12T16:11:50.953Z,98044.84
2017-07-12T16:14:20.415Z,98052.38
2017-07-12T16:16:49.873Z,98050.70
2017-07-12T16:19:19.426Z,98044.34
2017-07-12T16:21:49.074Z,98044.78
2017-07-12T16:24:18.562Z,98045.73
2017-07-12T16:26:47.998Z,98042.64
2017-07-12T16:29:17.471Z,98030.53
2017-07-12T16:31:46.929Z,98033.47
2017-07-12T16:34:16.398Z,98037.58
2017-07-12T16:36:45.850Z,98041.94
2017-07-12T16:39:15.316Z,98047.88
2017-07-12T16:41:44.781Z,98043.05
2017-07-12T16:44:14.239Z,98037.50
2017-07-12T16:46:43.724Z,98027.18
2017-07-12T16:49:13.315Z,98018.39
2017-07-12T16:51:42.769Z,98007.55
2017-07-12T16:54:12.279Z,98005.16
2017-07-12T16:56:41.761Z,98017.19
2017-07-12T16:59:11.206Z,98029.78
2017-07-12T17:01:40.674Z,98031.25
2017-07-12T17:04:10.169Z,98047.84
2017-07-12T17:06:39.647Z,98101.77
2017-07-12T17:09:09.099Z,98145.52
2017-07-12T17:11:38.536Z,98139.50
2017-07-12T17:14:08.094Z,98141.77
2017-07-12T17:16:37.531Z,98124.03
2017-07-12T17:19:06.986Z,98123.75
2017-07-12T17:21:36.439Z,98143.99
2017-07-12T17:24:05.893Z,98128.38
2017-07-12T17:26:35.372Z,98120.16
2017-07-12T17:29:04.834Z,98098.39
2017-07-12T17:31:34.291Z,98096.88
2017-07-12T17:34:03.757Z,98100.69
2017-07-12T17:36:33.201Z,98108.42
2017-07-12T17:39:02.684Z,98116.51
2017-07-12T17:41:31.938Z,98114.69
2017-07-12T17:44:01.396Z,98113.04
2017-07-12T17:46:30.852Z,98111.67
2017-07-12T17:49:00.296Z,98119.20
2017-07-12T17:51:29.786Z,98112.28
2017-07-12T17:53:59.213Z,98124.38
2017-07-12T17:56:28.671Z,98113.57
2017-07-12T17:58:58.131Z,98119.11
2017-07-12T18:01:27.582Z,98117.01
2017-07-12T18:03:57.019Z,98123.57
2017-07-12T18:06:26.461Z,98119.78
2017-07-12T18:08:55.910Z,98127.48
2017-07-12T18:11:25.369Z,98128.58
2017-07-12T18:13:54.899Z,98141.78
2017-07-12T18:16:24.342Z,98137.84
2017-07-12T18:18:53.832Z,98135.41
2017-07-12T18:21:23.274Z,98151.16
2017-07-12T18:23:52.749Z,98149.37
2017-07-12T18:26:22.227Z,98169.86
2017-07-12T18:28:51.687Z,98167.61
2017-07-12T18:31:21.146Z,98165.09
2017-07-12T18:33:50.610Z,98179.91
2017-07-12T18:36:20.050Z,98168.86
2017-07-12T18:38:49.526Z,98175.95
2017-07-12T18:41:19.029Z,98165.28
2017-07-12T18:43:48.463Z,98175.58
2017-07-12T18:46:17.907Z,98185.55
2017-07-12T18:48:47.456Z,98188.32
2017-07-12T18:51:16.902Z,98188.27
2017-07-12T18:53:46.343Z,98194.78
2017-07-12T18:56:15.814Z,98202.30
2017-07-12T18:58:45.245Z,98207.06
2017-07-12T19:01:14.707Z,98226.28
2017-07-12T19:03:44.167Z,98275.38
2017-07-12T19:06:13.610Z,98272.48
2017-07-12T19:08:43.061Z,98258.70
2017-07-12T19:11:12.510Z,98246.75
2017-07-12T19:13:41.966Z,98240.33
2017-07-12T19:16:11.416Z,98238.06
2017-07-12T19:18:40.867Z,98227.27
2017-07-12T19:21:10.327Z,98231.95
2017-07-12T19:23:40.200Z,98254.91
2017-07-12T19:26:09.646Z,98241.92
2017-07-12T19:28:39.110Z,98248.08
2017-07-12T19:31:08.549Z,98251.53
2017-07-12T19:33:38.009Z,98253.98
2017-07-12T19:36:07.467Z,98257.81
2017-07-12T19:38:36.929Z,98260.72
2017-07-12T19:41:06.427Z,98258.09
2017-07-12T19:43:36.082Z,98258.11
2017-07-12T19:46:05.537Z,98258.05
2017-07-12T19:48:34.982Z,98273.37
2017-07-12T19:51:04.441Z,98281.83
2017-07-12T19:53:33.897Z,98281.73
2017-07-12T19:56:03.354Z,98293.56
2017-07-12T19:58:32.833Z,98312.58
2017-07-12T20:01:02.289Z,98315.09
2017-07-12T20:03:31.751Z,98311.14
2017-07-12T20:06:01.209Z,98319.11
2017-07-12T20:08:30.663Z,98325.39
2017-07-12T20:11:00.093Z,98323.37
2017-07-12T20:13:29.552Z,98322.73
2017-07-12T20:15:59.346Z,98329.17
2017-07-12T20:18:28.845Z,98341.02
2017-07-12T20:20:58.301Z,98348.97
2017-07-12T20:23:27.763Z,98366.45
2017-07-12T20:25:57.260Z,98373.92
2017-07-12T20:28:26.737Z,98371.52
2017-07-12T20:30:56.194Z,98377.95
2017-07-12T20:33:26.593Z,98382.55
2017-07-12T20:35:56.042Z,98380.20
2017-07-12T20:38:25.526Z,98389.88
2017-07-12T20:40:54.971Z,98387.60
2017-07-12T20:43:24.426Z,98398.27
2017-07-12T20:45:53.878Z,98395.12
2017-07-12T20:48:23.346Z,98388.17
2017-07-12T20:50:52.818Z,98397.55
2017-07-12T20:53:22.257Z,98402.70
2017-07-12T20:55:51.977Z,98391.44
2017-07-12T20:58:21.440Z,98388.77
2017-07-12T21:00:50.884Z,98375.41
2017-07-12T21:03:20.341Z,98367.91
2017-07-12T21:05:49.799Z,98368.16
2017-07-12T21:08:19.249Z,98380.48
2017-07-12T21:10:48.746Z,98391.50
2017-07-12T21:13:18.194Z,98403.02
2017-07-12T21:15:47.657Z,98413.80
2017-07-12T21:18:17.106Z,98420.59
2017-07-12T21:20:46.573Z,98416.01
2017-07-12T21:23:16.028Z,98406.81
2017-07-12T21:25:45.470Z,98420.91
2017-07-12T21:28:14.915Z,98422.28
2017-07-12T21:30:44.361Z,98428.23
2017-07-12T21:33:13.842Z,98429.53
2017-07-12T21:35:43.289Z,98435.73
2017-07-12T21:38:12.730Z,98440.25
2017-07-12T21:40:42.230Z,98442.90
2017-07-12T21:43:11.923Z,98442.36
2017-07-12T21:45:41.387Z,98452.34
2017-07-12T21:48:10.848Z,98464.11
2017-07-12T21:50:40.304Z,98456.52
2017-07-12T21:53:26.456Z,98453.70
2017-07-12T21:56:18.297Z,98460.63
2017-07-12T21:59:10.237Z,98471.27
2017-07-12T22:02:02.258Z,98476.81
2017-07-12T22:04:54.289Z,98471.64
2017-07-12T22:07:46.438Z,98478.57
2017-07-12T22:10:38.388Z,98479.28
2017-07-12T22:13:30.405Z,98484.03
2017-07-12T22:16:22.422Z,98490.73
2017-07-12T22:19:14.489Z,98497.14
2017-07-12T22:22:06.488Z,98496.73
2017-07-12T22:24:58.434Z,98511.41
2017-07-12T22:27:50.510Z,98504.09
2017-07-12T22:30:42.629Z,98518.80
2017-07-12T22:33:34.590Z,98513.73
2017-07-12T22:36:26.467Z,98533.78
2017-07-12T22:39:07.154Z,98516.39
2017-07-12T22:41:41.961Z,98526.33
2017-07-12T22:44:10.670Z,98535.78
2017-07-12T22:46:40.138Z,98539.23
2017-07-12T22:49:09.580Z,98544.77
2017-07-12T22:51:39.069Z,98542.91
2017-07-12T22:54:08.610Z,98556.45
2017-07-12T22:56:38.221Z,98550.84
2017-07-12T22:59:07.683Z,98543.97
2017-07-12T23:01:36.933Z,98544.53
2017-07-12T23:04:06.215Z,98557.14
2017-07-12T23:06:35.669Z,98554.38
2017-07-12T23:09:04.541Z,98555.42
2017-07-12T23:11:33.973Z,98567.12
2017-07-12T23:14:03.429Z,98571.78
2017-07-12T23:16:32.880Z,98581.80
2017-07-12T23:19:02.334Z,98585.80
2017-07-12T23:21:31.767Z,98583.25
2017-07-12T23:24:01.228Z,98611.53
2017-07-12T23:26:30.693Z,98598.96
2017-07-12T23:29:00.156Z,98618.88
2017-07-12T23:31:29.597Z,98623.20
2017-07-12T23:33:59.050Z,98624.73
2017-07-12T23:36:28.499Z,98631.83
2017-07-12T23:38:57.960Z,98641.09
2017-07-12T23:41:27.417Z,98642.66
2017-07-12T23:43:56.891Z,98638.13
2017-07-12T23:46:26.355Z,98634.31
2017-07-12T23:48:55.789Z,98645.19
2017-07-12T23:51:25.242Z,98652.09
2017-07-12T23:53:54.731Z,98658.27
2017-07-12T23:56:24.188Z,98657.86
2017-07-12T23:58:53.638Z,98652.03
